sensor_id;sensor_type;location;lat;lon;timestamp;temperature;humidity
9057;DHT22;4563;54.756;9.400;2023-08-12T00:01:24;23.10;76.10
9057;DHT22;4563;54.756;9.400;2023-08-12T00:03:52;23.10;76.10
9057;DHT22;4563;54.756;9.400;2023-08-12T00:06:18;23.00;76.00
9057;DHT22;4563;54.756;9.400;2023-08-12T00:08:45;23.00;76.00
9057;DHT22;4563;54.756;9.400;2023-08-12T00:11:12;23.00;76.00
9057;DHT22;4563;54.756;9.400;2023-08-12T00:13:39;23.00;76.10
9057;DHT22;4563;54.756;9.400;2023-08-12T00:16:07;23.00;76.20
9057;DHT22;4563;54.756;9.400;2023-08-12T00:18:34;22.90;76.30
9057;DHT22;4563;54.756;9.400;2023-08-12T00:21:06;22.90;76.40
9057;DHT22;4563;54.756;9.400;2023-08-12T00:23:36;22.90;76.60
9057;DHT22;4563;54.756;9.400;2023-08-12T00:26:03;22.90;76.80
9057;DHT22;4563;54.756;9.400;2023-08-12T00:28:30;22.90;76.90
9057;DHT22;4563;54.756;9.400;2023-08-12T00:30:57;22.90;77.10
9057;DHT22;4563;54.756;9.400;2023-08-12T00:33:25;22.90;77.20
9057;DHT22;4563;54.756;9.400;2023-08-12T00:35:52;22.80;77.30
9057;DHT22;4563;54.756;9.400;2023-08-12T00:38:19;22.80;77.40
9057;DHT22;4563;54.756;9.400;2023-08-12T00:40:46;22.80;77.50
9057;DHT22;4563;54.756;9.400;2023-08-12T00:43:12;22.80;77.60
9057;DHT22;4563;54.756;9.400;2023-08-12T00:45:39;22.80;77.70
9057;DHT22;4563;54.756;9.400;2023-08-12T00:48:07;22.80;77.90
9057;DHT22;4563;54.756;9.400;2023-08-12T00:50:36;22.70;77.90
9057;DHT22;4563;54.756;9.400;2023-08-12T00:53:04;22.70;77.90
9057;DHT22;4563;54.756;9.400;2023-08-12T00:55:31;22.70;77.90
9057;DHT22;4563;54.756;9.400;2023-08-12T00:57:58;22.70;78.00
9057;DHT22;4563;54.756;9.400;2023-08-12T01:00:25;22.70;78.10
9057;DHT22;4563;54.756;9.400;2023-08-12T01:02:56;22.70;78.30
9057;DHT22;4563;54.756;9.400;2023-08-12T01:05:23;22.70;78.20
9057;DHT22;4563;54.756;9.400;2023-08-12T01:07:51;22.60;78.30
9057;DHT22;4563;54.756;9.400;2023-08-12T01:10:23;22.60;78.40
9057;DHT22;4563;54.756;9.400;2023-08-12T01:12:56;22.60;78.40
9057;DHT22;4563;54.756;9.400;2023-08-12T01:15:26;22.60;78.60
9057;DHT22;4563;54.756;9.400;2023-08-12T01:17:54;22.60;78.70
9057;DHT22;4563;54.756;9.400;2023-08-12T01:20:22;22.60;78.80
9057;DHT22;4563;54.756;9.400;2023-08-12T01:22:57;22.50;78.60
9057;DHT22;4563;54.756;9.400;2023-08-12T01:25:28;22.50;78.60
9057;DHT22;4563;54.756;9.400;2023-08-12T01:27:55;22.50;78.60
9057;DHT22;4563;54.756;9.400;2023-08-12T01:30:22;22.50;78.60
9057;DHT22;4563;54.756;9.400;2023-08-12T01:32:53;22.50;78.80
9057;DHT22;4563;54.756;9.400;2023-08-12T01:35:26;22.50;78.70
9057;DHT22;4563;54.756;9.400;2023-08-12T01:37:57;22.40;78.80
9057;DHT22;4563;54.756;9.400;2023-08-12T01:40:28;22.40;78.90
9057;DHT22;4563;54.756;9.400;2023-08-12T01:42:56;22.50;79.00
9057;DHT22;4563;54.756;9.400;2023-08-12T01:45:22;22.50;79.00
9057;DHT22;4563;54.756;9.400;2023-08-12T01:47:49;22.40;78.90
9057;DHT22;4563;54.756;9.400;2023-08-12T01:50:16;22.40;78.90
9057;DHT22;4563;54.756;9.400;2023-08-12T01:52:44;22.30;78.80
9057;DHT22;4563;54.756;9.400;2023-08-12T01:55:11;22.40;79.00
9057;DHT22;4563;54.756;9.400;2023-08-12T01:57:39;22.40;79.10
9057;DHT22;4563;54.756;9.400;2023-08-12T02:00:07;22.40;79.20
9057;DHT22;4563;54.756;9.400;2023-08-12T02:02:34;22.30;79.20
9057;DHT22;4563;54.756;9.400;2023-08-12T02:05:01;22.30;79.20
9057;DHT22;4563;54.756;9.400;2023-08-12T02:07:27;22.30;79.20
9057;DHT22;4563;54.756;9.400;2023-08-12T02:09:54;22.30;79.20
9057;DHT22;4563;54.756;9.400;2023-08-12T02:12:21;22.30;79.30
9057;DHT22;4563;54.756;9.400;2023-08-12T02:14:49;22.30;79.40
9057;DHT22;4563;54.756;9.400;2023-08-12T02:17:16;22.20;79.30
9057;DHT22;4563;54.756;9.400;2023-08-12T02:19:43;22.20;80.20
9057;DHT22;4563;54.756;9.400;2023-08-12T02:22:09;22.20;79.40
9057;DHT22;4563;54.756;9.400;2023-08-12T02:24:38;22.20;79.40
9057;DHT22;4563;54.756;9.400;2023-08-12T02:27:05;22.20;79.50
9057;DHT22;4563;54.756;9.400;2023-08-12T02:29:32;22.20;79.60
9057;DHT22;4563;54.756;9.400;2023-08-12T02:32:02;22.20;79.60
9057;DHT22;4563;54.756;9.400;2023-08-12T02:34:29;22.20;79.60
9057;DHT22;4563;54.756;9.400;2023-08-12T02:36:55;22.20;79.70
9057;DHT22;4563;54.756;9.400;2023-08-12T02:39:22;22.10;79.60
9057;DHT22;4563;54.756;9.400;2023-08-12T02:41:49;22.10;79.70
9057;DHT22;4563;54.756;9.400;2023-08-12T02:44:19;22.10;79.80
9057;DHT22;4563;54.756;9.400;2023-08-12T02:46:45;22.10;79.90
9057;DHT22;4563;54.756;9.400;2023-08-12T02:49:13;22.10;79.90
9057;DHT22;4563;54.756;9.400;2023-08-12T02:51:40;22.10;79.90
9057;DHT22;4563;54.756;9.400;2023-08-12T02:54:07;22.10;80.00
9057;DHT22;4563;54.756;9.400;2023-08-12T02:56:34;22.00;79.90
9057;DHT22;4563;54.756;9.400;2023-08-12T02:59:00;22.00;80.00
9057;DHT22;4563;54.756;9.400;2023-08-12T03:01:27;22.00;80.10
9057;DHT22;4563;54.756;9.400;2023-08-12T03:03:54;22.00;80.10
9057;DHT22;4563;54.756;9.400;2023-08-12T03:06:22;22.00;80.10
9057;DHT22;4563;54.756;9.400;2023-08-12T03:08:49;22.00;80.20
9057;DHT22;4563;54.756;9.400;2023-08-12T03:11:16;22.00;80.20
9057;DHT22;4563;54.756;9.400;2023-08-12T03:13:44;22.00;80.20
9057;DHT22;4563;54.756;9.400;2023-08-12T03:16:11;21.90;80.30
9057;DHT22;4563;54.756;9.400;2023-08-12T03:18:39;21.90;80.40
9057;DHT22;4563;54.756;9.400;2023-08-12T03:21:06;21.90;80.30
9057;DHT22;4563;54.756;9.400;2023-08-12T03:23:34;21.90;80.30
9057;DHT22;4563;54.756;9.400;2023-08-12T03:26:01;21.90;80.30
9057;DHT22;4563;54.756;9.400;2023-08-12T03:28:28;21.90;80.30
9057;DHT22;4563;54.756;9.400;2023-08-12T03:30:55;21.90;80.30
9057;DHT22;4563;54.756;9.400;2023-08-12T03:33:24;21.80;80.30
9057;DHT22;4563;54.756;9.400;2023-08-12T03:35:51;21.80;80.40
9057;DHT22;4563;54.756;9.400;2023-08-12T03:38:17;21.80;80.40
9057;DHT22;4563;54.756;9.400;2023-08-12T03:40:46;21.70;80.40
9057;DHT22;4563;54.756;9.400;2023-08-12T03:43:12;21.70;80.50
9057;DHT22;4563;54.756;9.400;2023-08-12T03:45:39;21.70;80.60
9057;DHT22;4563;54.756;9.400;2023-08-12T03:48:06;21.70;80.70
9057;DHT22;4563;54.756;9.400;2023-08-12T03:50:33;21.70;80.80
9057;DHT22;4563;54.756;9.400;2023-08-12T03:53:01;21.70;80.90
9057;DHT22;4563;54.756;9.400;2023-08-12T03:55:30;21.70;81.00
9057;DHT22;4563;54.756;9.400;2023-08-12T03:57:58;21.70;81.00
9057;DHT22;4563;54.756;9.400;2023-08-12T04:00:25;21.70;81.00
9057;DHT22;4563;54.756;9.400;2023-08-12T04:02:52;21.70;81.00
9057;DHT22;4563;54.756;9.400;2023-08-12T04:05:19;21.70;81.10
9057;DHT22;4563;54.756;9.400;2023-08-12T04:07:46;21.70;81.20
9057;DHT22;4563;54.756;9.400;2023-08-12T04:10:13;21.70;81.10
9057;DHT22;4563;54.756;9.400;2023-08-12T04:12:40;21.70;81.10
9057;DHT22;4563;54.756;9.400;2023-08-12T04:15:11;21.70;81.20
9057;DHT22;4563;54.756;9.400;2023-08-12T04:17:38;21.70;81.10
9057;DHT22;4563;54.756;9.400;2023-08-12T04:20:07;21.70;81.20
9057;DHT22;4563;54.756;9.400;2023-08-12T04:22:34;21.60;81.20
9057;DHT22;4563;54.756;9.400;2023-08-12T04:25:01;21.60;81.20
9057;DHT22;4563;54.756;9.400;2023-08-12T04:27:28;21.60;81.20
9057;DHT22;4563;54.756;9.400;2023-08-12T04:29:55;21.60;81.20
9057;DHT22;4563;54.756;9.400;2023-08-12T04:32:23;21.60;81.30
9057;DHT22;4563;54.756;9.400;2023-08-12T04:34:50;21.60;81.30
9057;DHT22;4563;54.756;9.400;2023-08-12T04:37:16;21.60;81.30
9057;DHT22;4563;54.756;9.400;2023-08-12T04:39:43;21.60;81.40
9057;DHT22;4563;54.756;9.400;2023-08-12T04:42:11;21.60;81.40
9057;DHT22;4563;54.756;9.400;2023-08-12T04:44:40;21.60;81.50
9057;DHT22;4563;54.756;9.400;2023-08-12T04:47:07;21.60;81.50
9057;DHT22;4563;54.756;9.400;2023-08-12T04:49:35;21.60;81.60
9057;DHT22;4563;54.756;9.400;2023-08-12T04:52:01;21.60;81.60
9057;DHT22;4563;54.756;9.400;2023-08-12T04:54:28;21.60;81.60
9057;DHT22;4563;54.756;9.400;2023-08-12T04:56:55;21.60;81.70
9057;DHT22;4563;54.756;9.400;2023-08-12T04:59:22;21.60;81.70
9057;DHT22;4563;54.756;9.400;2023-08-12T05:01:50;21.60;81.70
9057;DHT22;4563;54.756;9.400;2023-08-12T05:04:17;21.60;81.80
9057;DHT22;4563;54.756;9.400;2023-08-12T05:06:51;21.60;81.90
9057;DHT22;4563;54.756;9.400;2023-08-12T05:09:18;21.50;81.90
9057;DHT22;4563;54.756;9.400;2023-08-12T05:11:45;21.50;81.80
9057;DHT22;4563;54.756;9.400;2023-08-12T05:14:11;21.50;81.80
9057;DHT22;4563;54.756;9.400;2023-08-12T05:16:38;21.50;81.90
9057;DHT22;4563;54.756;9.400;2023-08-12T05:19:05;21.50;82.00
9057;DHT22;4563;54.756;9.400;2023-08-12T05:21:32;21.50;82.10
9057;DHT22;4563;54.756;9.400;2023-08-12T05:24:00;21.50;82.20
9057;DHT22;4563;54.756;9.400;2023-08-12T05:26:27;21.50;82.30
9057;DHT22;4563;54.756;9.400;2023-08-12T05:28:54;21.50;82.40
9057;DHT22;4563;54.756;9.400;2023-08-12T05:31:20;21.50;82.40
9057;DHT22;4563;54.756;9.400;2023-08-12T05:33:47;21.50;82.50
9057;DHT22;4563;54.756;9.400;2023-08-12T05:36:14;21.50;82.60
9057;DHT22;4563;54.756;9.400;2023-08-12T05:38:41;21.50;82.70
9057;DHT22;4563;54.756;9.400;2023-08-12T05:41:09;21.50;82.70
9057;DHT22;4563;54.756;9.400;2023-08-12T05:43:36;21.50;82.70
9057;DHT22;4563;54.756;9.400;2023-08-12T05:46:02;21.50;82.70
9057;DHT22;4563;54.756;9.400;2023-08-12T05:48:29;21.50;82.70
9057;DHT22;4563;54.756;9.400;2023-08-12T05:50:56;21.50;82.70
9057;DHT22;4563;54.756;9.400;2023-08-12T05:53:23;21.50;82.70
9057;DHT22;4563;54.756;9.400;2023-08-12T05:55:50;21.50;82.80
9057;DHT22;4563;54.756;9.400;2023-08-12T05:58:18;21.50;82.90
9057;DHT22;4563;54.756;9.400;2023-08-12T06:00:45;21.50;83.10
9057;DHT22;4563;54.756;9.400;2023-08-12T06:03:12;21.50;83.20
9057;DHT22;4563;54.756;9.400;2023-08-12T06:05:40;21.60;83.40
9057;DHT22;4563;54.756;9.400;2023-08-12T06:08:07;21.60;83.50
9057;DHT22;4563;54.756;9.400;2023-08-12T06:10:34;21.50;83.30
9057;DHT22;4563;54.756;9.400;2023-08-12T06:13:01;21.60;83.50
9057;DHT22;4563;54.756;9.400;2023-08-12T06:15:29;21.60;83.50
9057;DHT22;4563;54.756;9.400;2023-08-12T06:17:56;21.60;83.60
9057;DHT22;4563;54.756;9.400;2023-08-12T06:20:23;21.60;84.30
9057;DHT22;4563;54.756;9.400;2023-08-12T06:22:50;21.60;83.60
9057;DHT22;4563;54.756;9.400;2023-08-12T06:25:17;21.60;83.60
9057;DHT22;4563;54.756;9.400;2023-08-12T06:27:44;21.60;83.70
9057;DHT22;4563;54.756;9.400;2023-08-12T06:30:12;21.60;83.70
9057;DHT22;4563;54.756;9.400;2023-08-12T06:32:41;21.60;83.80
9057;DHT22;4563;54.756;9.400;2023-08-12T06:35:08;21.70;83.90
9057;DHT22;4563;54.756;9.400;2023-08-12T06:37:35;21.70;84.00
9057;DHT22;4563;54.756;9.400;2023-08-12T06:40:02;21.70;84.00
9057;DHT22;4563;54.756;9.400;2023-08-12T06:42:29;21.70;84.70
9057;DHT22;4563;54.756;9.400;2023-08-12T06:44:57;21.70;83.90
9057;DHT22;4563;54.756;9.400;2023-08-12T06:47:25;21.70;84.00
9057;DHT22;4563;54.756;9.400;2023-08-12T06:49:54;21.70;84.00
9057;DHT22;4563;54.756;9.400;2023-08-12T06:52:21;21.70;84.00
9057;DHT22;4563;54.756;9.400;2023-08-12T06:54:48;21.70;84.10
9057;DHT22;4563;54.756;9.400;2023-08-12T06:57:15;21.70;84.10
9057;DHT22;4563;54.756;9.400;2023-08-12T06:59:44;21.70;84.30
9057;DHT22;4563;54.756;9.400;2023-08-12T07:02:11;21.80;84.50
9057;DHT22;4563;54.756;9.400;2023-08-12T07:04:38;21.80;84.60
9057;DHT22;4563;54.756;9.400;2023-08-12T07:07:07;21.80;84.50
9057;DHT22;4563;54.756;9.400;2023-08-12T07:09:34;21.80;84.60
9057;DHT22;4563;54.756;9.400;2023-08-12T07:12:00;21.80;84.60
9057;DHT22;4563;54.756;9.400;2023-08-12T07:14:28;21.80;84.60
9057;DHT22;4563;54.756;9.400;2023-08-12T07:16:55;21.90;84.80
9057;DHT22;4563;54.756;9.400;2023-08-12T07:19:22;21.90;84.80
9057;DHT22;4563;54.756;9.400;2023-08-12T07:21:49;21.90;84.80
9057;DHT22;4563;54.756;9.400;2023-08-12T07:24:17;21.90;84.70
9057;DHT22;4563;54.756;9.400;2023-08-12T07:26:44;22.00;84.80
9057;DHT22;4563;54.756;9.400;2023-08-12T07:29:11;22.00;84.80
9057;DHT22;4563;54.756;9.400;2023-08-12T07:31:37;22.00;84.80
9057;DHT22;4563;54.756;9.400;2023-08-12T07:34:04;22.00;84.70
9057;DHT22;4563;54.756;9.400;2023-08-12T07:36:31;22.00;84.60
9057;DHT22;4563;54.756;9.400;2023-08-12T07:38:58;22.10;84.70
9057;DHT22;4563;54.756;9.400;2023-08-12T07:41:26;22.10;84.60
9057;DHT22;4563;54.756;9.400;2023-08-12T07:43:53;22.10;84.50
9057;DHT22;4563;54.756;9.400;2023-08-12T07:46:20;22.10;84.50
9057;DHT22;4563;54.756;9.400;2023-08-12T07:48:47;22.20;84.60
9057;DHT22;4563;54.756;9.400;2023-08-12T07:51:14;22.20;84.60
9057;DHT22;4563;54.756;9.400;2023-08-12T07:53:40;22.20;84.60
9057;DHT22;4563;54.756;9.400;2023-08-12T07:56:07;22.20;84.70
9057;DHT22;4563;54.756;9.400;2023-08-12T07:58:36;22.20;84.70
9057;DHT22;4563;54.756;9.400;2023-08-12T08:01:03;22.30;84.70
9057;DHT22;4563;54.756;9.400;2023-08-12T08:03:30;22.30;84.40
9057;DHT22;4563;54.756;9.400;2023-08-12T08:05:57;22.30;84.10
9057;DHT22;4563;54.756;9.400;2023-08-12T08:08:24;22.40;84.00
9057;DHT22;4563;54.756;9.400;2023-08-12T08:10:51;22.40;83.90
9057;DHT22;4563;54.756;9.400;2023-08-12T08:13:18;22.40;83.70
9057;DHT22;4563;54.756;9.400;2023-08-12T08:15:46;22.50;83.40
9057;DHT22;4563;54.756;9.400;2023-08-12T08:18:13;22.50;83.20
9057;DHT22;4563;54.756;9.400;2023-08-12T08:20:41;22.50;83.20
9057;DHT22;4563;54.756;9.400;2023-08-12T08:23:08;22.50;83.10
9057;DHT22;4563;54.756;9.400;2023-08-12T08:25:35;22.50;83.10
9057;DHT22;4563;54.756;9.400;2023-08-12T08:28:02;22.50;83.10
9057;DHT22;4563;54.756;9.400;2023-08-12T08:30:29;22.60;83.20
9057;DHT22;4563;54.756;9.400;2023-08-12T08:32:57;22.60;83.00
9057;DHT22;4563;54.756;9.400;2023-08-12T08:35:24;22.70;83.90
9057;DHT22;4563;54.756;9.400;2023-08-12T08:37:52;22.60;82.90
9057;DHT22;4563;54.756;9.400;2023-08-12T08:40:19;22.70;82.70
9057;DHT22;4563;54.756;9.400;2023-08-12T08:42:47;22.70;82.70
9057;DHT22;4563;54.756;9.400;2023-08-12T08:45:18;22.70;83.40
9057;DHT22;4563;54.756;9.400;2023-08-12T08:47:45;22.70;82.60
9057;DHT22;4563;54.756;9.400;2023-08-12T08:50:14;22.70;82.60
9057;DHT22;4563;54.756;9.400;2023-08-12T08:52:41;22.80;82.70
9057;DHT22;4563;54.756;9.400;2023-08-12T08:55:08;22.80;82.70
9057;DHT22;4563;54.756;9.400;2023-08-12T08:57:37;22.80;82.70
9057;DHT22;4563;54.756;9.400;2023-08-12T09:00:07;22.90;82.80
9057;DHT22;4563;54.756;9.400;2023-08-12T09:02:35;22.90;82.60
9057;DHT22;4563;54.756;9.400;2023-08-12T09:05:05;22.90;82.50
9057;DHT22;4563;54.756;9.400;2023-08-12T09:07:34;22.90;82.40
9057;DHT22;4563;54.756;9.400;2023-08-12T09:10:02;23.00;82.30
9057;DHT22;4563;54.756;9.400;2023-08-12T09:12:31;23.00;82.20
9057;DHT22;4563;54.756;9.400;2023-08-12T09:14:58;23.00;82.20
9057;DHT22;4563;54.756;9.400;2023-08-12T09:17:25;23.10;82.30
9057;DHT22;4563;54.756;9.400;2023-08-12T09:19:52;23.10;82.20
9057;DHT22;4563;54.756;9.400;2023-08-12T09:22:19;23.10;82.30
9057;DHT22;4563;54.756;9.400;2023-08-12T09:24:49;23.10;82.40
9057;DHT22;4563;54.756;9.400;2023-08-12T09:27:17;23.20;82.30
9057;DHT22;4563;54.756;9.400;2023-08-12T09:29:47;23.30;82.30
9057;DHT22;4563;54.756;9.400;2023-08-12T09:32:18;23.30;82.50
9057;DHT22;4563;54.756;9.400;2023-08-12T09:34:46;23.40;82.60
9057;DHT22;4563;54.756;9.400;2023-08-12T09:37:14;23.40;82.70
9057;DHT22;4563;54.756;9.400;2023-08-12T09:39:42;23.50;82.80
9057;DHT22;4563;54.756;9.400;2023-08-12T09:42:10;23.60;82.20
9057;DHT22;4563;54.756;9.400;2023-08-12T09:44:38;23.70;81.70
9057;DHT22;4563;54.756;9.400;2023-08-12T09:47:06;23.90;81.10
9057;DHT22;4563;54.756;9.400;2023-08-12T09:49:33;24.00;80.70
9057;DHT22;4563;54.756;9.400;2023-08-12T09:52:01;24.10;80.40
9057;DHT22;4563;54.756;9.400;2023-08-12T09:54:31;24.30;80.20
9057;DHT22;4563;54.756;9.400;2023-08-12T09:56:59;24.40;80.00
9057;DHT22;4563;54.756;9.400;2023-08-12T09:59:30;24.50;79.60
9057;DHT22;4563;54.756;9.400;2023-08-12T10:01:59;24.70;79.30
9057;DHT22;4563;54.756;9.400;2023-08-12T10:04:35;24.80;78.80
9057;DHT22;4563;54.756;9.400;2023-08-12T10:07:05;24.90;78.00
9057;DHT22;4563;54.756;9.400;2023-08-12T10:09:32;25.00;77.70
9057;DHT22;4563;54.756;9.400;2023-08-12T10:12:01;25.10;77.90
9057;DHT22;4563;54.756;9.400;2023-08-12T10:14:31;25.20;78.20
9057;DHT22;4563;54.756;9.400;2023-08-12T10:16:58;25.30;77.30
9057;DHT22;4563;54.756;9.400;2023-08-12T10:19:29;25.40;76.70
9057;DHT22;4563;54.756;9.400;2023-08-12T10:21:56;25.50;76.50
9057;DHT22;4563;54.756;9.400;2023-08-12T10:24:26;25.60;76.00
9057;DHT22;4563;54.756;9.400;2023-08-12T10:26:53;25.60;75.30
9057;DHT22;4563;54.756;9.400;2023-08-12T10:29:20;25.70;75.00
9057;DHT22;4563;54.756;9.400;2023-08-12T10:31:48;25.70;74.80
9057;DHT22;4563;54.756;9.400;2023-08-12T10:34:20;25.70;75.00
9057;DHT22;4563;54.756;9.400;2023-08-12T10:36:47;25.70;75.20
9057;DHT22;4563;54.756;9.400;2023-08-12T10:39:14;25.70;75.20
9057;DHT22;4563;54.756;9.400;2023-08-12T10:41:50;25.70;75.10
9057;DHT22;4563;54.756;9.400;2023-08-12T10:44:20;25.70;74.90
9057;DHT22;4563;54.756;9.400;2023-08-12T10:46:52;25.70;75.10
9057;DHT22;4563;54.756;9.400;2023-08-12T10:49:20;25.70;75.00
9057;DHT22;4563;54.756;9.400;2023-08-12T10:51:48;25.70;74.80
9057;DHT22;4563;54.756;9.400;2023-08-12T10:54:16;25.80;75.00
9057;DHT22;4563;54.756;9.400;2023-08-12T10:57:05;25.70;74.50
9057;DHT22;4563;54.756;9.400;2023-08-12T10:59:53;25.70;74.60
9057;DHT22;4563;54.756;9.400;2023-08-12T11:02:26;25.70;75.20
9057;DHT22;4563;54.756;9.400;2023-08-12T11:04:54;25.70;74.40
9057;DHT22;4563;54.756;9.400;2023-08-12T11:07:28;25.70;74.30
9057;DHT22;4563;54.756;9.400;2023-08-12T11:09:59;25.70;73.90
9057;DHT22;4563;54.756;9.400;2023-08-12T11:12:30;25.70;73.90
9057;DHT22;4563;54.756;9.400;2023-08-12T11:14:58;25.70;74.00
9057;DHT22;4563;54.756;9.400;2023-08-12T11:17:37;25.70;74.30
9057;DHT22;4563;54.756;9.400;2023-08-12T11:20:05;25.70;74.20
9057;DHT22;4563;54.756;9.400;2023-08-12T11:22:36;25.70;74.00
9057;DHT22;4563;54.756;9.400;2023-08-12T11:25:04;25.70;73.70
9057;DHT22;4563;54.756;9.400;2023-08-12T11:27:40;25.70;73.50
9057;DHT22;4563;54.756;9.400;2023-08-12T11:30:08;25.70;73.70
9057;DHT22;4563;54.756;9.400;2023-08-12T11:32:37;25.60;73.60
9057;DHT22;4563;54.756;9.400;2023-08-12T11:35:05;25.60;73.80
9057;DHT22;4563;54.756;9.400;2023-08-12T11:37:33;25.50;74.10
9057;DHT22;4563;54.756;9.400;2023-08-12T11:40:01;25.50;74.30
9057;DHT22;4563;54.756;9.400;2023-08-12T11:42:29;25.50;74.40
9057;DHT22;4563;54.756;9.400;2023-08-12T11:44:56;25.50;74.60
9057;DHT22;4563;54.756;9.400;2023-08-12T11:47:23;25.50;74.80
9057;DHT22;4563;54.756;9.400;2023-08-12T11:49:52;25.40;74.90
9057;DHT22;4563;54.756;9.400;2023-08-12T11:52:18;25.40;74.90
9057;DHT22;4563;54.756;9.400;2023-08-12T11:54:45;25.40;74.90
9057;DHT22;4563;54.756;9.400;2023-08-12T11:57:12;25.30;74.90
9057;DHT22;4563;54.756;9.400;2023-08-12T11:59:39;25.30;74.90
9057;DHT22;4563;54.756;9.400;2023-08-12T12:02:07;25.30;76.00
9057;DHT22;4563;54.756;9.400;2023-08-12T12:04:34;25.30;75.50
9057;DHT22;4563;54.756;9.400;2023-08-12T12:07:02;25.30;75.60
9057;DHT22;4563;54.756;9.400;2023-08-12T12:09:31;25.30;75.50
9057;DHT22;4563;54.756;9.400;2023-08-12T12:11:59;25.20;75.70
9057;DHT22;4563;54.756;9.400;2023-08-12T12:14:28;25.20;75.70
9057;DHT22;4563;54.756;9.400;2023-08-12T12:16:55;25.20;75.80
9057;DHT22;4563;54.756;9.400;2023-08-12T12:19:23;25.20;76.00
9057;DHT22;4563;54.756;9.400;2023-08-12T12:21:50;25.20;76.10
9057;DHT22;4563;54.756;9.400;2023-08-12T12:24:20;25.20;76.10
9057;DHT22;4563;54.756;9.400;2023-08-12T12:26:47;25.20;76.20
9057;DHT22;4563;54.756;9.400;2023-08-12T12:29:14;25.10;76.10
9057;DHT22;4563;54.756;9.400;2023-08-12T12:31:41;25.10;76.10
9057;DHT22;4563;54.756;9.400;2023-08-12T12:34:08;25.10;76.10
9057;DHT22;4563;54.756;9.400;2023-08-12T12:36:36;25.10;76.20
9057;DHT22;4563;54.756;9.400;2023-08-12T12:39:04;25.10;76.50
9057;DHT22;4563;54.756;9.400;2023-08-12T12:41:32;25.00;76.60
9057;DHT22;4563;54.756;9.400;2023-08-12T12:44:00;25.00;76.70
9057;DHT22;4563;54.756;9.400;2023-08-12T12:46:27;25.00;76.80
9057;DHT22;4563;54.756;9.400;2023-08-12T12:48:54;25.00;76.90
9057;DHT22;4563;54.756;9.400;2023-08-12T12:51:21;25.00;77.90
9057;DHT22;4563;54.756;9.400;2023-08-12T12:53:47;25.00;77.20
9057;DHT22;4563;54.756;9.400;2023-08-12T12:56:14;24.90;77.20
9057;DHT22;4563;54.756;9.400;2023-08-12T12:58:42;25.00;77.50
9057;DHT22;4563;54.756;9.400;2023-08-12T13:01:09;24.90;77.60
9057;DHT22;4563;54.756;9.400;2023-08-12T13:03:36;24.90;77.80
9057;DHT22;4563;54.756;9.400;2023-08-12T13:06:03;24.90;77.80
9057;DHT22;4563;54.756;9.400;2023-08-12T13:08:29;24.90;78.00
9057;DHT22;4563;54.756;9.400;2023-08-12T13:10:57;24.90;78.20
9057;DHT22;4563;54.756;9.400;2023-08-12T13:13:24;24.90;78.30
9057;DHT22;4563;54.756;9.400;2023-08-12T13:15:52;24.90;78.50
9057;DHT22;4563;54.756;9.400;2023-08-12T13:18:19;24.80;78.50
9057;DHT22;4563;54.756;9.400;2023-08-12T13:20:45;24.80;78.70
9057;DHT22;4563;54.756;9.400;2023-08-12T13:23:13;24.80;78.90
9057;DHT22;4563;54.756;9.400;2023-08-12T13:25:40;24.80;79.10
9057;DHT22;4563;54.756;9.400;2023-08-12T13:28:07;24.80;79.20
9057;DHT22;4563;54.756;9.400;2023-08-12T13:30:34;24.70;79.20
9057;DHT22;4563;54.756;9.400;2023-08-12T13:33:03;24.70;79.20
9057;DHT22;4563;54.756;9.400;2023-08-12T13:35:30;24.70;79.20
9057;DHT22;4563;54.756;9.400;2023-08-12T13:37:57;24.70;79.20
9057;DHT22;4563;54.756;9.400;2023-08-12T13:40:24;24.60;79.30
9057;DHT22;4563;54.756;9.400;2023-08-12T13:42:51;24.70;79.60
9057;DHT22;4563;54.756;9.400;2023-08-12T13:45:17;24.60;79.60
9057;DHT22;4563;54.756;9.400;2023-08-12T13:47:44;24.60;79.70
9057;DHT22;4563;54.756;9.400;2023-08-12T13:50:12;24.60;79.80
9057;DHT22;4563;54.756;9.400;2023-08-12T13:52:40;24.50;79.70
9057;DHT22;4563;54.756;9.400;2023-08-12T13:55:07;24.50;79.80
9057;DHT22;4563;54.756;9.400;2023-08-12T13:57:34;24.50;79.90
9057;DHT22;4563;54.756;9.400;2023-08-12T14:00:01;24.40;79.80
9057;DHT22;4563;54.756;9.400;2023-08-12T14:02:30;24.40;79.60
9057;DHT22;4563;54.756;9.400;2023-08-12T14:04:56;24.30;79.20
9057;DHT22;4563;54.756;9.400;2023-08-12T14:07:25;24.30;79.00
9057;DHT22;4563;54.756;9.400;2023-08-12T14:09:51;24.20;78.70
9057;DHT22;4563;54.756;9.400;2023-08-12T14:12:18;24.20;78.70
9057;DHT22;4563;54.756;9.400;2023-08-12T14:14:45;24.10;78.70
9057;DHT22;4563;54.756;9.400;2023-08-12T14:17:12;24.10;78.80
9057;DHT22;4563;54.756;9.400;2023-08-12T14:19:40;24.00;78.90
9057;DHT22;4563;54.756;9.400;2023-08-12T14:22:08;24.00;79.10
9057;DHT22;4563;54.756;9.400;2023-08-12T14:24:36;24.00;79.20
9057;DHT22;4563;54.756;9.400;2023-08-12T14:27:03;23.90;79.20
9057;DHT22;4563;54.756;9.400;2023-08-12T14:29:30;23.90;79.40
9057;DHT22;4563;54.756;9.400;2023-08-12T14:31:57;23.90;79.40
9057;DHT22;4563;54.756;9.400;2023-08-12T14:34:25;23.80;79.40
9057;DHT22;4563;54.756;9.400;2023-08-12T14:36:52;23.80;79.40
9057;DHT22;4563;54.756;9.400;2023-08-12T14:39:19;23.80;79.60
9057;DHT22;4563;54.756;9.400;2023-08-12T14:41:47;23.70;79.60
9057;DHT22;4563;54.756;9.400;2023-08-12T14:44:14;23.70;79.80
9057;DHT22;4563;54.756;9.400;2023-08-12T14:46:41;23.70;79.90
9057;DHT22;4563;54.756;9.400;2023-08-12T14:49:07;23.70;79.90
9057;DHT22;4563;54.756;9.400;2023-08-12T14:51:34;23.60;79.90
9057;DHT22;4563;54.756;9.400;2023-08-12T14:54:01;23.60;80.10
9057;DHT22;4563;54.756;9.400;2023-08-12T14:56:29;23.60;80.20
9057;DHT22;4563;54.756;9.400;2023-08-12T14:58:57;23.60;80.30
9057;DHT22;4563;54.756;9.400;2023-08-12T15:01:24;23.60;80.40
9057;DHT22;4563;54.756;9.400;2023-08-12T15:03:53;23.50;80.40
9057;DHT22;4563;54.756;9.400;2023-08-12T15:06:21;23.50;80.40
9057;DHT22;4563;54.756;9.400;2023-08-12T15:08:48;23.40;80.40
9057;DHT22;4563;54.756;9.400;2023-08-12T15:11:15;23.40;80.50
9057;DHT22;4563;54.756;9.400;2023-08-12T15:13:42;23.40;80.50
9057;DHT22;4563;54.756;9.400;2023-08-12T15:16:10;23.40;80.50
9057;DHT22;4563;54.756;9.400;2023-08-12T15:18:38;23.40;80.60
9057;DHT22;4563;54.756;9.400;2023-08-12T15:21:05;23.30;80.50
9057;DHT22;4563;54.756;9.400;2023-08-12T15:23:32;23.30;80.50
9057;DHT22;4563;54.756;9.400;2023-08-12T15:26:00;23.30;80.70
9057;DHT22;4563;54.756;9.400;2023-08-12T15:28:28;23.30;80.80
9057;DHT22;4563;54.756;9.400;2023-08-12T15:30:55;23.20;80.90
9057;DHT22;4563;54.756;9.400;2023-08-12T15:33:23;23.20;80.90
9057;DHT22;4563;54.756;9.400;2023-08-12T15:35:49;23.20;81.00
9057;DHT22;4563;54.756;9.400;2023-08-12T15:38:16;23.20;81.10
9057;DHT22;4563;54.756;9.400;2023-08-12T15:40:43;23.10;81.00
9057;DHT22;4563;54.756;9.400;2023-08-12T15:43:10;23.20;81.10
9057;DHT22;4563;54.756;9.400;2023-08-12T15:45:37;23.20;81.10
9057;DHT22;4563;54.756;9.400;2023-08-12T15:48:06;23.10;81.20
9057;DHT22;4563;54.756;9.400;2023-08-12T15:50:34;23.10;81.40
9057;DHT22;4563;54.756;9.400;2023-08-12T15:53:01;23.10;81.40
9057;DHT22;4563;54.756;9.400;2023-08-12T15:55:28;23.10;81.30
9057;DHT22;4563;54.756;9.400;2023-08-12T15:57:55;23.10;81.40
9057;DHT22;4563;54.756;9.400;2023-08-12T16:00:22;23.00;81.30
9057;DHT22;4563;54.756;9.400;2023-08-12T16:02:50;23.00;81.40
9057;DHT22;4563;54.756;9.400;2023-08-12T16:05:16;23.00;81.50